Wetterstation Vordersexau
Wetterdaten: Woche 08.07.13 - 14.07.13 (KW28)
Datum Zeit Temp. A. Feuchte A. Luftdruck Regen Wind Richtung Taupunkt Windchill Windben
08.07.2013 00:00 18,4 C 76 % 1023,6 hPa 0,0 l/m 0,0 km/h NO 14,1 C 18,4 C 0,0 km/h
08.07.2013 01:00 20,1 C 67 % 1023,5 hPa 0,0 l/m 0,6 km/h NO 13,8 C 20,1 C 0,4 km/h
08.07.2013 02:00 18,9 C 70 % 1023,3 hPa 0,0 l/m 0,0 km/h O-SO 13,3 C 18,9 C 0,0 km/h
08.07.2013 03:00 16,1 C 77 % 1023,3 hPa 0,0 l/m 0,0 km/h S-SO 12,1 C 16,1 C 0,0 km/h
08.07.2013 04:00 14,8 C 80 % 1023,3 hPa 0,0 l/m 0,0 km/h W 11,4 C 14,8 C 0,0 km/h
08.07.2013 05:00 14,1 C 82 % 1023,1 hPa 0,0 l/m 0,0 km/h N-NW 11,1 C 14,1 C 0,0 km/h
08.07.2013 06:00 14,2 C 82 % 1023,5 hPa 0,0 l/m 0,0 km/h W 11,2 C 14,2 C 0,0 km/h
08.07.2013 07:00 16,5 C 81 % 1023,7 hPa 0,0 l/m 0,0 km/h N 13,2 C 16,5 C 0,0 km/h
08.07.2013 08:00 24,1 C 62 % 1023,7 hPa 0,0 l/m 0,0 km/h NW 16,4 C 24,1 C 0,0 km/h
08.07.2013 09:00 26,9 C 55 % 1023,5 hPa 0,0 l/m 1,9 km/h W 17,1 C 26,9 C 1,1 km/h
08.07.2013 10:00 28,6 C 53 % 1023,3 hPa 0,0 l/m 0,0 km/h N-NW 18,1 C 28,6 C 0,0 km/h
08.07.2013 11:00 30,9 C 47 % 1022,9 hPa 0,0 l/m 20,1 km/h NO 18,2 C 30,3 C 11,2 km/h
08.07.2013 12:00 29,8 C 45 % 1022,6 hPa 0,0 l/m 18,8 km/h O-SO 16,6 C 28,9 C 10,4 km/h
08.07.2013 13:00 31,9 C 41 % 1022,3 hPa 0,0 l/m 0,0 km/h O-NO 17,0 C 31,9 C 0,0 km/h
08.07.2013 14:00 32,5 C 41 % 1021,9 hPa 0,0 l/m 0,0 km/h O-SO 17,5 C 32,5 C 0,0 km/h
08.07.2013 15:00 33,7 C 35 % 1021,4 hPa 0,0 l/m 0,0 km/h NO 16,1 C 33,7 C 0,0 km/h
08.07.2013 16:00 35,9 C 32 % 1021,0 hPa 0,0 l/m 0,0 km/h N 16,6 C 35,9 C 0,0 km/h
08.07.2013 17:00 37,4 C 30 % 1020,8 hPa 0,0 l/m 0,0 km/h SO 16,8 C 37,4 C 0,0 km/h
08.07.2013 18:00 35,9 C 30 % 1020,5 hPa 0,0 l/m 9,7 km/h O-NO 15,6 C 35,9 C 5,4 km/h
08.07.2013 19:00 33,3 C 32 % 1020,6 hPa 0,0 l/m 0,0 km/h N-NW 14,3 C 33,3 C 0,0 km/h
08.07.2013 20:00 26,5 C 43 % 1021,0 hPa 0,0 l/m 3,9 km/h S-SO 12,9 C 26,5 C 2,2 km/h
08.07.2013 21:00 23,8 C 50 % 1021,1 hPa 0,0 l/m 2,6 km/h SO 12,7 C 23,8 C 1,4 km/h
08.07.2013 22:00 22,7 C 53 % 1021,4 hPa 0,0 l/m 0,0 km/h W 12,6 C 22,7 C 0,0 km/h
08.07.2013 23:00 19,4 C 64 % 1021,3 hPa 0,0 l/m 0,0 km/h S 12,4 C 19,4 C 0,0 km/h
09.07.2013 00:00 17,3 C 73 % 1021,5 hPa 0,0 l/m 0,0 km/h O-SO 12,4 C 17,3 C 0,0 km/h
09.07.2013 01:00 17,4 C 74 % 1021,0 hPa 0,0 l/m 0,0 km/h O-NO 12,7 C 17,4 C 0,0 km/h
09.07.2013 02:00 18,0 C 72 % 1020,6 hPa 0,0 l/m 0,0 km/h N 12,9 C 18,0 C 0,0 km/h
09.07.2013 03:00 15,9 C 76 % 1020,2 hPa 0,0 l/m 0,0 km/h N 11,7 C 15,9 C 0,0 km/h
09.07.2013 04:00 14,9 C 79 % 1019,9 hPa 0,0 l/m 0,0 km/h W 11,3 C 14,9 C 0,0 km/h
09.07.2013 05:00 14,1 C 81 % 1019,9 hPa 0,0 l/m 0,0 km/h W 10,9 C 14,1 C 0,0 km/h
09.07.2013 06:00 13,6 C 82 % 1020,1 hPa 0,0 l/m 0,0 km/h N-NW 10,6 C 13,6 C 0,0 km/h
09.07.2013 07:00 17,3 C 81 % 1020,0 hPa 0,0 l/m 0,0 km/h N 14,0 C 17,3 C 0,0 km/h
09.07.2013 08:00 21,6 C 73 % 1020,1 hPa 0,0 l/m 0,0 km/h NO 16,5 C 21,6 C 0,0 km/h
09.07.2013 09:00 26,9 C 56 % 1019,7 hPa 0,0 l/m 0,0 km/h S-SO 17,4 C 26,9 C 0,0 km/h
09.07.2013 10:00 30,1 C 49 % 1019,3 hPa 0,0 l/m 0,0 km/h N-NO 18,2 C 30,1 C 0,0 km/h
09.07.2013 11:00 32,6 C 41 % 1018,8 hPa 0,0 l/m 0,0 km/h S 17,6 C 32,6 C 0,0 km/h
09.07.2013 12:00 31,6 C 41 % 1018,5 hPa 0,0 l/m 0,6 km/h O-NO 16,7 C 31,6 C 0,4 km/h
09.07.2013 13:00 32,4 C 40 % 1018,0 hPa 0,0 l/m 0,0 km/h O-NO 17,0 C 32,4 C 0,0 km/h
09.07.2013 14:00 32,9 C 38 % 1017,5 hPa 0,0 l/m 1,9 km/h O-SO 16,7 C 32,9 C 1,1 km/h
09.07.2013 15:00 33,2 C 38 % 1017,0 hPa 0,0 l/m 0,0 km/h O 16,9 C 33,2 C 0,0 km/h
09.07.2013 16:00 37,0 C 33 % 1016,4 hPa 0,0 l/m 0,0 km/h N-NO 18,0 C 37,0 C 0,0 km/h
09.07.2013 17:00 36,5 C 34 % 1015,9 hPa 0,0 l/m 1,3 km/h O-NO 18,1 C 36,5 C 0,7 km/h
09.07.2013 18:00 35,6 C 36 % 1016,0 hPa 0,0 l/m 19,4 km/h NO 18,2 C 35,6 C 10,8 km/h
09.07.2013 19:00 33,0 C 38 % 1015,8 hPa 0,0 l/m 0,0 km/h NO 16,8 C 33,0 C 0,0 km/h
09.07.2013 20:00 28,2 C 47 % 1015,8 hPa 0,0 l/m 0,0 km/h O-NO 15,8 C 28,2 C 0,0 km/h
09.07.2013 21:00 24,2 C 59 % 1016,3 hPa 0,0 l/m 0,0 km/h NO 15,7 C 24,2 C 0,0 km/h
09.07.2013 22:00 22,1 C 65 % 1016,8 hPa 0,0 l/m 0,0 km/h N 15,2 C 22,1 C 0,0 km/h
09.07.2013 23:00 21,8 C 62 % 1016,6 hPa 0,0 l/m 0,0 km/h NO 14,2 C 21,8 C 0,0 km/h
10.07.2013 00:00 19,7 C 69 % 1016,5 hPa 0,0 l/m 0,0 km/h NO 13,8 C 19,7 C 0,0 km/h
10.07.2013 01:00 17,6 C 75 % 1016,0 hPa 0,0 l/m 0,0 km/h S 13,1 C 17,6 C 0,0 km/h
10.07.2013 02:00 16,4 C 79 % 1015,9 hPa 0,0 l/m 0,0 km/h S 12,7 C 16,4 C 0,0 km/h
10.07.2013 03:00 15,1 C 81 % 1015,7 hPa 0,0 l/m 0,0 km/h O-NO 11,9 C 15,1 C 0,0 km/h
10.07.2013 04:00 14,9 C 81 % 1015,7 hPa 0,0 l/m 0,0 km/h O-NO 11,7 C 14,9 C 0,0 km/h
10.07.2013 05:00 14,4 C 82 % 1015,5 hPa 0,0 l/m 0,0 km/h O 11,4 C 14,4 C 0,0 km/h
10.07.2013 06:00 13,6 C 81 % 1016,0 hPa 0,0 l/m 0,0 km/h SO 10,4 C 13,6 C 0,0 km/h
10.07.2013 07:00 15,2 C 78 % 1016,1 hPa 0,0 l/m 0,0 km/h N 11,4 C 15,2 C 0,0 km/h
10.07.2013 08:00 24,0 C 67 % 1016,2 hPa 0,0 l/m 0,0 km/h N 17,5 C 24,0 C 0,0 km/h
10.07.2013 09:00 26,7 C 56 % 1015,9 hPa 0,0 l/m 14,9 km/h N 17,2 C 25,4 C 8,3 km/h
10.07.2013 10:00 28,9 C 53 % 1015,4 hPa 0,0 l/m 1,9 km/h N-NO 18,3 C 28,9 C 1,1 km/h
10.07.2013 11:00 30,8 C 49 % 1015,2 hPa 0,0 l/m 5,8 km/h NO 18,8 C 30,8 C 3,2 km/h
10.07.2013 12:00 30,1 C 48 % 1014,7 hPa 0,0 l/m 7,1 km/h N-NO 17,9 C 30,0 C 4,0 km/h
10.07.2013 13:00 30,4 C 47 % 1014,2 hPa 0,0 l/m 6,5 km/h NO 17,8 C 30,4 C 3,6 km/h
10.07.2013 14:00 31,5 C 44 % 1013,8 hPa 0,0 l/m 0,0 km/h N-NW 17,7 C 31,5 C 0,0 km/h
10.07.2013 15:00 32,1 C 40 % 1013,6 hPa 0,0 l/m 4,5 km/h NW 16,8 C 32,1 C 2,5 km/h
10.07.2013 16:00 33,5 C 37 % 1013,2 hPa 0,0 l/m 18,8 km/h N 16,8 C 33,5 C 10,4 km/h
10.07.2013 17:00 33,8 C 36 % 1013,0 hPa 0,0 l/m 18,1 km/h NO 16,6 C 33,8 C 10,1 km/h
10.07.2013 18:00 33,3 C 34 % 1012,6 hPa 0,0 l/m 18,8 km/h NO 15,3 C 33,3 C 10,4 km/h
10.07.2013 19:00 31,4 C 35 % 1012,2 hPa 0,0 l/m 0,0 km/h O-SO 14,1 C 31,4 C 0,0 km/h
10.07.2013 20:00 25,8 C 44 % 1012,5 hPa 0,0 l/m 0,0 km/h S-SO 12,6 C 25,8 C 0,0 km/h
10.07.2013 21:00 22,1 C 58 % 1012,7 hPa 0,0 l/m 0,0 km/h S-SO 13,4 C 22,1 C 0,0 km/h
10.07.2013 22:00 19,0 C 69 % 1013,3 hPa 0,0 l/m 0,0 km/h SO 13,2 C 19,0 C 0,0 km/h
10.07.2013 23:00 18,3 C 73 % 1013,8 hPa 0,0 l/m 0,0 km/h O-SO 13,4 C 18,3 C 0,0 km/h
11.07.2013 00:00 17,4 C 75 % 1013,9 hPa 0,0 l/m 0,0 km/h O-SO 12,9 C 17,4 C 0,0 km/h
11.07.2013 01:00 15,6 C 80 % 1014,0 hPa 0,0 l/m 0,0 km/h O-SO 12,2 C 15,6 C 0,0 km/h
11.07.2013 02:00 14,8 C 81 % 1014,0 hPa 0,0 l/m 0,0 km/h O-SO 11,6 C 14,8 C 0,0 km/h
11.07.2013 03:00 13,9 C 82 % 1013,8 hPa 0,0 l/m 0,0 km/h S-SO 10,9 C 13,9 C 0,0 km/h
11.07.2013 04:00 13,0 C 81 % 1013,9 hPa 0,0 l/m 0,0 km/h O-SO 9,8 C 13,0 C 0,0 km/h
11.07.2013 05:00 13,1 C 79 % 1014,0 hPa 0,0 l/m 0,0 km/h S 9,5 C 13,1 C 0,0 km/h
11.07.2013 06:00 12,8 C 79 % 1014,4 hPa 0,0 l/m 0,0 km/h SO 9,2 C 12,8 C 0,0 km/h
11.07.2013 07:00 14,9 C 70 % 1014,5 hPa 0,0 l/m 0,0 km/h W 9,5 C 14,9 C 0,0 km/h
11.07.2013 08:00 21,2 C 69 % 1014,9 hPa 0,0 l/m 0,0 km/h W-NW 15,3 C 21,2 C 0,0 km/h
11.07.2013 09:00 21,8 C 68 % 1015,0 hPa 0,0 l/m 0,0 km/h N-NO 15,6 C 21,8 C 0,0 km/h
11.07.2013 10:00 25,0 C 56 % 1015,1 hPa 0,0 l/m 0,0 km/h NW 15,6 C 25,0 C 0,0 km/h
11.07.2013 11:00 26,6 C 50 % 1015,2 hPa 0,0 l/m 1,3 km/h N-NO 15,3 C 26,6 C 0,7 km/h
11.07.2013 12:00 25,1 C 55 % 1015,1 hPa 0,0 l/m 1,9 km/h N-NW 15,4 C 25,1 C 1,1 km/h
11.07.2013 13:00 26,3 C 52 % 1014,8 hPa 0,0 l/m 5,8 km/h O-NO 15,6 C 26,3 C 3,2 km/h
11.07.2013 14:00 27,1 C 50 % 1014,8 hPa 0,0 l/m 8,4 km/h NO 15,8 C 26,7 C 4,7 km/h
11.07.2013 15:00 28,6 C 46 % 1014,8 hPa 0,0 l/m 4,5 km/h NO 15,8 C 28,6 C 2,5 km/h
11.07.2013 16:00 30,2 C 39 % 1014,6 hPa 0,0 l/m 10,4 km/h N-NO 14,7 C 29,9 C 5,8 km/h
11.07.2013 17:00 30,4 C 39 % 1014,5 hPa 0,0 l/m 2,6 km/h N 14,9 C 30,4 C 1,4 km/h
11.07.2013 18:00 29,4 C 39 % 1014,6 hPa 0,0 l/m 7,8 km/h NO 14,0 C 29,2 C 4,3 km/h
11.07.2013 19:00 23,3 C 49 % 1014,7 hPa 0,0 l/m 0,0 km/h O-NO 12,0 C 23,3 C 0,0 km/h
11.07.2013 20:00 21,6 C 53 % 1015,0 hPa 0,0 l/m 7,8 km/h S 11,6 C 21,1 C 4,3 km/h
11.07.2013 21:00 19,1 C 60 % 1015,4 hPa 0,0 l/m 0,0 km/h S 11,1 C 19,1 C 0,0 km/h
11.07.2013 22:00 15,2 C 72 % 1015,8 hPa 0,0 l/m 0,0 km/h S 10,2 C 15,2 C 0,0 km/h
11.07.2013 23:00 14,4 C 77 % 1016,0 hPa 0,0 l/m 0,0 km/h N-NW 10,4 C 14,4 C 0,0 km/h
12.07.2013 00:00 13,5 C 78 % 1016,6 hPa 0,0 l/m 0,0 km/h S 9,7 C 13,5 C 0,0 km/h
12.07.2013 01:00 12,2 C 80 % 1016,6 hPa 0,0 l/m 0,0 km/h S-SO 8,9 C 12,2 C 0,0 km/h
12.07.2013 02:00 11,0 C 82 % 1016,6 hPa 0,0 l/m 0,0 km/h S 8,0 C 11,0 C 0,0 km/h
12.07.2013 03:00 10,2 C 82 % 1016,5 hPa 0,0 l/m 0,0 km/h S 7,3 C 10,2 C 0,0 km/h
12.07.2013 04:00 9,3 C 82 % 1016,5 hPa 0,0 l/m 0,0 km/h S 6,4 C 9,3 C 0,0 km/h
12.07.2013 05:00 8,8 C 82 % 1016,4 hPa 0,0 l/m 0,0 km/h W 5,9 C 8,8 C 0,0 km/h
12.07.2013 06:00 9,5 C 80 % 1017,0 hPa 0,0 l/m 0,0 km/h N 6,2 C 9,5 C 0,0 km/h
12.07.2013 07:00 11,3 C 73 % 1017,1 hPa 0,0 l/m 0,0 km/h N-NW 6,6 C 11,3 C 0,0 km/h
12.07.2013 08:00 20,6 C 68 % 1017,0 hPa 0,0 l/m 0,0 km/h N-NW 14,5 C 20,6 C 0,0 km/h
12.07.2013 09:00 23,8 C 55 % 1017,2 hPa 0,0 l/m 0,0 km/h NO 14,2 C 23,8 C 0,0 km/h
12.07.2013 10:00 26,4 C 48 % 1017,1 hPa 0,0 l/m 1,3 km/h N-NW 14,5 C 26,4 C 0,7 km/h
12.07.2013 11:00 27,3 C 46 % 1017,0 hPa 0,0 l/m 11,7 km/h N-NW 14,6 C 26,5 C 6,5 km/h
12.07.2013 12:00 26,8 C 43 % 1016,8 hPa 0,0 l/m 0,0 km/h N 13,2 C 26,8 C 0,0 km/h
12.07.2013 13:00 26,8 C 45 % 1016,7 hPa 0,0 l/m 3,9 km/h N 13,9 C 26,8 C 2,2 km/h
12.07.2013 14:00 27,4 C 42 % 1016,6 hPa 0,0 l/m 2,6 km/h N 13,3 C 27,4 C 1,4 km/h
12.07.2013 15:00 29,1 C 40 % 1016,2 hPa 0,0 l/m 7,8 km/h NW 14,1 C 28,9 C 4,3 km/h
12.07.2013 16:00 31,9 C 35 % 1016,1 hPa 0,0 l/m 3,2 km/h NO 14,5 C 31,9 C 1,8 km/h
12.07.2013 17:00 31,9 C 36 % 1015,8 hPa 0,0 l/m 5,2 km/h O-NO 14,9 C 31,9 C 2,9 km/h
12.07.2013 18:00 30,4 C 36 % 1015,8 hPa 0,0 l/m 7,1 km/h N-NW 13,6 C 30,3 C 4,0 km/h
12.07.2013 19:00 28,2 C 38 % 1016,1 hPa 0,0 l/m 3,2 km/h NO 12,5 C 28,2 C 1,8 km/h
12.07.2013 20:00 22,9 C 49 % 1016,1 hPa 0,0 l/m 3,9 km/h O 11,6 C 22,9 C 2,2 km/h
12.07.2013 21:00 20,1 C 55 % 1016,4 hPa 0,0 l/m 0,0 km/h S 10,8 C 20,1 C 0,0 km/h
12.07.2013 22:00 16,2 C 71 % 1016,8 hPa 0,0 l/m 0,0 km/h O-SO 10,9 C 16,2 C 0,0 km/h
12.07.2013 23:00 14,8 C 75 % 1017,0 hPa 0,0 l/m 0,0 km/h O-NO 10,4 C 14,8 C 0,0 km/h
13.07.2013 00:00 13,8 C 79 % 1016,7 hPa 0,0 l/m 0,0 km/h O-NO 10,2 C 13,8 C 0,0 km/h
13.07.2013 01:00 12,4 C 81 % 1016,9 hPa 0,0 l/m 0,0 km/h SO 9,2 C 12,4 C 0,0 km/h
13.07.2013 02:00 12,3 C 82 % 1016,8 hPa 0,0 l/m 0,0 km/h N-NO 9,3 C 12,3 C 0,0 km/h
13.07.2013 03:00 11,3 C 82 % 1017,1 hPa 0,0 l/m 0,0 km/h SO 8,3 C 11,3 C 0,0 km/h
13.07.2013 04:00 10,6 C 82 % 1017,0 hPa 0,0 l/m 0,0 km/h O-NO 7,7 C 10,6 C 0,0 km/h
13.07.2013 05:00 10,5 C 80 % 1017,1 hPa 0,0 l/m 0,0 km/h O-NO 7,2 C 10,5 C 0,0 km/h
13.07.2013 06:00 10,4 C 79 % 1017,1 hPa 0,0 l/m 0,0 km/h O 6,9 C 10,4 C 0,0 km/h
13.07.2013 07:00 11,9 C 75 % 1017,6 hPa 0,0 l/m 0,0 km/h NW 7,6 C 11,9 C 0,0 km/h
13.07.2013 08:00 18,4 C 73 % 1017,8 hPa 0,0 l/m 0,0 km/h NW 13,5 C 18,4 C 0,0 km/h
13.07.2013 09:00 21,4 C 68 % 1017,9 hPa 0,0 l/m 5,8 km/h W-NW 15,2 C 21,4 C 3,2 km/h
13.07.2013 10:00 25,4 C 53 % 1018,0 hPa 0,0 l/m 0,0 km/h NW 15,1 C 25,4 C 0,0 km/h
13.07.2013 11:00 27,9 C 45 % 1017,8 hPa 0,0 l/m 0,0 km/h N 14,8 C 27,9 C 0,0 km/h
13.07.2013 12:00 27,1 C 50 % 1017,4 hPa 0,0 l/m 2,6 km/h N-NW 15,8 C 27,1 C 1,4 km/h
13.07.2013 13:00 27,4 C 49 % 1017,0 hPa 0,0 l/m 12,3 km/h NW 15,7 C 26,5 C 6,8 km/h
13.07.2013 14:00 28,9 C 45 % 1016,8 hPa 0,0 l/m 9,1 km/h NW 15,8 C 28,6 C 5,0 km/h
13.07.2013 15:00 30,4 C 38 % 1016,9 hPa 0,0 l/m 3,2 km/h O 14,5 C 30,4 C 1,8 km/h
13.07.2013 16:00 31,7 C 36 % 1016,7 hPa 0,0 l/m 1,9 km/h N-NW 14,8 C 31,7 C 1,1 km/h
13.07.2013 17:00 33,9 C 33 % 1016,5 hPa 0,0 l/m 6,5 km/h NO 15,3 C 33,9 C 3,6 km/h
13.07.2013 18:00 32,1 C 35 % 1016,6 hPa 0,0 l/m 1,3 km/h O-NO 14,7 C 32,1 C 0,7 km/h
13.07.2013 19:00 29,1 C 39 % 1016,7 hPa 0,0 l/m 0,0 km/h N-NO 13,7 C 29,1 C 0,0 km/h
13.07.2013 20:00 24,3 C 48 % 1016,9 hPa 0,0 l/m 5,2 km/h O-NO 12,6 C 24,3 C 2,9 km/h
13.07.2013 21:00 21,6 C 54 % 1017,2 hPa 0,0 l/m 0,0 km/h S-SW 11,9 C 21,6 C 0,0 km/h
13.07.2013 22:00 17,4 C 67 % 1017,8 hPa 0,0 l/m 0,0 km/h O-NO 11,2 C 17,4 C 0,0 km/h
13.07.2013 23:00 16,2 C 73 % 1018,2 hPa 0,0 l/m 0,0 km/h O-NO 11,4 C 16,2 C 0,0 km/h
14.07.2013 00:00 15,9 C 76 % 1018,6 hPa 0,0 l/m 0,0 km/h O-NO 11,7 C 15,9 C 0,0 km/h
14.07.2013 01:00 15,1 C 77 % 1018,4 hPa 0,0 l/m 9,1 km/h S-SO 11,1 C 13,6 C 5,0 km/h
14.07.2013 02:00 14,1 C 77 % 1018,6 hPa 0,0 l/m 0,0 km/h O-NO 10,1 C 14,1 C 0,0 km/h
14.07.2013 03:00 12,8 C 81 % 1018,6 hPa 0,0 l/m 0,0 km/h SO 9,6 C 12,8 C 0,0 km/h
14.07.2013 04:00 11,4 C 82 % 1018,8 hPa 0,0 l/m 0,0 km/h SO 8,4 C 11,4 C 0,0 km/h
14.07.2013 05:00 10,7 C 82 % 1019,1 hPa 0,0 l/m 0,0 km/h O-NO 7,8 C 10,7 C 0,0 km/h
14.07.2013 06:00 10,9 C 81 % 1019,5 hPa 0,0 l/m 0,0 km/h O-SO 7,8 C 10,9 C 0,0 km/h
14.07.2013 07:00 12,9 C 78 % 1019,5 hPa 0,0 l/m 0,0 km/h W-SW 9,2 C 12,9 C 0,0 km/h
14.07.2013 08:00 21,6 C 66 % 1019,8 hPa 0,0 l/m 0,0 km/h NW 15,0 C 21,6 C 0,0 km/h
14.07.2013 09:00 24,1 C 54 % 1019,7 hPa 0,0 l/m 0,0 km/h SW 14,2 C 24,1 C 0,0 km/h
14.07.2013 10:00 27,1 C 48 % 1019,0 hPa 0,0 l/m 0,0 km/h N-NW 15,1 C 27,1 C 0,0 km/h
14.07.2013 11:00 28,0 C 49 % 1019,3 hPa 0,0 l/m 14,9 km/h N-NW 16,3 C 27,0 C 8,3 km/h
14.07.2013 12:00 27,5 C 50 % 1018,9 hPa 0,0 l/m 20,1 km/h NW 16,1 C 25,9 C 11,2 km/h
14.07.2013 13:00 28,4 C 45 % 1018,6 hPa 0,0 l/m 11,0 km/h NO 15,3 C 27,8 C 6,1 km/h
14.07.2013 14:00 29,3 C 42 % 1018,1 hPa 0,0 l/m 9,1 km/h N-NW 15,0 C 29,0 C 5,0 km/h
14.07.2013 15:00 31,5 C 38 % 1017,9 hPa 0,0 l/m 0,0 km/h O-NO 15,4 C 31,5 C 0,0 km/h
14.07.2013 16:00 33,4 C 35 % 1017,5 hPa 0,0 l/m 3,9 km/h NO 15,8 C 33,4 C 2,2 km/h
14.07.2013 17:00 34,6 C 32 % 1017,4 hPa 0,0 l/m 0,0 km/h N-NO 15,5 C 34,6 C 0,0 km/h
14.07.2013 18:00 33,4 C 35 % 1017,3 hPa 0,0 l/m 11,0 km/h O-NO 15,8 C 33,4 C 6,1 km/h
14.07.2013 19:00 30,6 C 39 % 1017,4 hPa 0,0 l/m 0,0 km/h O-NO 15,0 C 30,6 C 0,0 km/h
14.07.2013 20:00 25,0 C 50 % 1017,5 hPa 0,0 l/m 2,6 km/h O 13,8 C 25,0 C 1,4 km/h
14.07.2013 21:00 20,6 C 58 % 1017,8 hPa 0,0 l/m 0,0 km/h O-SO 12,0 C 20,6 C 0,0 km/h
14.07.2013 22:00 18,1 C 70 % 1018,4 hPa 0,0 l/m 0,0 km/h SO 12,5 C 18,1 C 0,0 km/h
14.07.2013 23:00 16,8 C 73 % 1018,9 hPa 0,0 l/m 0,0 km/h O-NO 11,9 C 16,8 C 0,0 km/h
Min-Datum _ 12.07.13 08.07.13 10.07.13 - 08.07.13 - 12.07.13 12.07.13 08.07.13
_ Min-Zeit 05:19 17:19 19:19 - 00:19 - 05:19 05:19 00:19
Minimum _ 8,8 C 30 % 1012,2 hPa - 0,0 km/h - 5,9 C 8,8 C 0,0 km/h
Max-Datum _ 08.07.13 08.07.13 08.07.13 08.07.13 08.07.13 - 10.07.13 08.07.13 08.07.13
_ Max-Zeit 17:19 05:19 07:19 00:19 11:19 - 11:19 17:19 11:19
Maximum _ 37,4 C 82 % 1023,7 hPa 0,0 l/m 20,1 km/h
NO
- 18,8 C 37,4 C 11,2 km/h
NO
Durchschnitt _ 22,8 C 59 % 1017,5 hPa #0,0 l/m 2,4 km/h O-NO 13,4 C 22,7 C 1,3 km/h
www.sexauwetter.de